createdAt,value
2017-08-02T14:18:17.582Z,29.10
2017-08-02T14:20:46.035Z,28.80
2017-08-02T14:23:14.347Z,28.90
2017-08-02T14:25:42.674Z,28.90
2017-08-02T14:28:13.535Z,29.00
2017-08-02T14:30:43.208Z,28.90
2017-08-02T14:33:11.512Z,28.80
2017-08-02T14:35:40.579Z,28.70
2017-08-02T14:38:08.939Z,28.70
2017-08-02T14:40:37.237Z,28.90
2017-08-02T14:43:05.587Z,29.00
2017-08-02T14:45:33.885Z,29.00
2017-08-02T14:48:02.209Z,28.80
2017-08-02T14:50:30.543Z,28.60
2017-08-02T14:52:59.648Z,28.50
2017-08-02T14:55:28.002Z,28.50
2017-08-02T14:57:56.310Z,28.50
2017-08-02T15:00:24.624Z,28.60
2017-08-02T15:02:52.974Z,28.60
2017-08-02T15:05:22.254Z,28.40
2017-08-02T15:07:50.809Z,28.40
2017-08-02T15:10:19.317Z,28.50
2017-08-02T15:12:47.658Z,28.60
2017-08-02T15:15:15.974Z,28.70
2017-08-02T15:17:44.260Z,28.80
2017-08-02T15:20:12.616Z,29.00
2017-08-02T15:22:40.910Z,29.00
2017-08-02T15:25:09.201Z,28.90
2017-08-02T15:27:37.780Z,28.90
2017-08-02T15:30:06.110Z,28.80
2017-08-02T15:32:34.564Z,28.90
2017-08-02T15:35:02.891Z,28.80
2017-08-02T15:37:31.269Z,28.70
2017-08-02T15:39:59.610Z,28.60
2017-08-02T15:42:27.908Z,28.50
2017-08-02T15:44:56.208Z,28.30
2017-08-02T15:47:24.536Z,28.30
2017-08-02T15:49:52.864Z,28.20
2017-08-02T15:52:21.217Z,28.10
2017-08-02T15:54:49.508Z,28.30
2017-08-02T15:57:17.806Z,28.30
2017-08-02T15:59:46.154Z,28.40
2017-08-02T16:02:14.445Z,28.40
2017-08-02T16:04:42.781Z,28.60
2017-08-02T16:07:11.065Z,28.70
2017-08-02T16:09:39.377Z,28.60
2017-08-02T16:12:07.692Z,28.60
2017-08-02T16:14:36.026Z,28.60
2017-08-02T16:17:04.337Z,28.30
2017-08-02T16:19:32.672Z,28.10
2017-08-02T16:22:00.971Z,28.00
2017-08-02T16:24:29.304Z,27.90
2017-08-02T16:26:57.613Z,27.90
2017-08-02T16:29:25.913Z,27.90
2017-08-02T16:31:54.232Z,27.90
2017-08-02T16:34:22.880Z,27.80
2017-08-02T16:36:51.990Z,27.90
2017-08-02T16:39:20.288Z,27.90
2017-08-02T16:41:48.616Z,27.90
2017-08-02T16:44:16.962Z,27.90
2017-08-02T16:46:45.265Z,28.00
2017-08-02T16:49:13.556Z,28.00
2017-08-02T16:51:41.871Z,28.00
2017-08-02T16:54:10.173Z,28.00
2017-08-02T16:56:38.511Z,28.00
2017-08-02T16:59:06.855Z,28.00
2017-08-02T17:01:35.213Z,27.90
2017-08-02T17:04:03.617Z,27.80
2017-08-02T17:06:32.670Z,27.70
2017-08-02T17:09:00.959Z,27.70
2017-08-02T17:11:30.053Z,27.70
2017-08-02T17:13:58.397Z,27.70
2017-08-02T17:16:26.684Z,27.70
2017-08-02T17:18:54.973Z,27.60
2017-08-02T17:21:23.330Z,27.50
2017-08-02T17:23:52.393Z,27.60
2017-08-02T17:26:20.704Z,27.60
2017-08-02T17:28:49.034Z,27.50
2017-08-02T17:31:17.345Z,27.30
2017-08-02T17:33:45.642Z,27.30
2017-08-02T17:36:14.001Z,27.20
2017-08-02T17:38:43.103Z,27.20
2017-08-02T17:41:11.402Z,27.20
2017-08-02T17:43:39.698Z,27.30
2017-08-02T17:46:08.646Z,27.20
2017-08-02T17:48:36.937Z,27.30
2017-08-02T17:51:05.231Z,27.30
2017-08-02T17:53:33.577Z,27.20
2017-08-02T17:56:01.898Z,27.30
2017-08-02T17:58:30.236Z,27.20
2017-08-02T18:00:59.298Z,27.00
2017-08-02T18:03:27.762Z,27.10
2017-08-02T18:05:56.822Z,27.00
2017-08-02T18:08:25.138Z,27.00
2017-08-02T18:10:53.494Z,27.00
2017-08-02T18:13:21.794Z,26.90
2017-08-02T18:15:50.879Z,26.90
2017-08-02T18:18:19.160Z,26.90
2017-08-02T18:20:47.501Z,26.80
2017-08-02T18:23:15.818Z,26.70
2017-08-02T18:25:44.908Z,26.60
2017-08-02T18:28:13.233Z,26.60
2017-08-02T18:30:41.519Z,26.60
2017-08-02T18:33:15.866Z,26.40
2017-08-02T18:35:44.164Z,26.30
2017-08-02T18:38:12.485Z,26.20
2017-08-02T18:40:40.798Z,26.10
2017-08-02T18:43:09.089Z,26.00
2017-08-02T18:45:37.414Z,25.90
2017-08-02T18:48:05.723Z,25.90
2017-08-02T18:50:34.021Z,25.80
2017-08-02T18:53:02.348Z,25.80
2017-08-02T18:55:30.661Z,25.70
2017-08-02T18:57:58.969Z,25.60
2017-08-02T19:00:27.256Z,25.50
2017-08-02T19:02:55.588Z,25.40
2017-08-02T19:05:23.967Z,25.40
2017-08-02T19:07:52.295Z,25.30
2017-08-02T19:10:20.586Z,25.30
2017-08-02T19:12:48.902Z,25.30
2017-08-02T19:15:17.211Z,25.20
2017-08-02T19:17:45.507Z,25.20
2017-08-02T19:20:13.837Z,25.20
2017-08-02T19:22:42.888Z,25.20
2017-08-02T19:25:11.219Z,25.10
2017-08-02T19:27:39.529Z,25.10
2017-08-02T19:30:07.827Z,25.10
2017-08-02T19:32:36.142Z,25.00
2017-08-02T19:35:04.440Z,25.00
2017-08-02T19:37:32.758Z,24.90
2017-08-02T19:40:01.085Z,24.90
2017-08-02T19:42:30.167Z,24.90
2017-08-02T19:44:58.502Z,24.80
2017-08-02T19:47:27.562Z,24.70
2017-08-02T19:49:55.918Z,24.70
2017-08-02T19:52:24.213Z,24.70
2017-08-02T19:54:52.505Z,24.50
2017-08-02T19:57:20.829Z,24.50
2017-08-02T19:59:49.120Z,24.40
2017-08-02T20:02:17.445Z,24.40
2017-08-02T20:04:45.773Z,24.40
2017-08-02T20:07:14.858Z,24.30
2017-08-02T20:09:43.155Z,24.30
2017-08-02T20:12:11.453Z,24.30
2017-08-02T20:14:39.770Z,24.20
2017-08-02T20:17:08.084Z,24.10
2017-08-02T20:19:36.381Z,24.10
2017-08-02T20:22:04.700Z,24.10
2017-08-02T20:24:32.988Z,24.10
2017-08-02T20:27:01.327Z,24.00
2017-08-02T20:29:29.756Z,24.00
2017-08-02T20:31:58.052Z,24.00
2017-08-02T20:34:26.341Z,23.90
2017-08-02T20:36:54.666Z,23.80
2017-08-02T20:39:22.960Z,23.80
2017-08-02T20:41:51.284Z,23.80
2017-08-02T20:44:19.594Z,23.80
2017-08-02T20:46:47.928Z,23.70
2017-08-02T20:49:16.988Z,23.70
2017-08-02T20:51:45.324Z,23.70
2017-08-02T20:54:13.646Z,23.60
2017-08-02T20:56:41.937Z,23.60
2017-08-02T20:59:10.233Z,23.50
2017-08-02T21:01:38.573Z,23.40
2017-08-02T21:04:07.632Z,23.30
2017-08-02T21:06:36.164Z,23.30
2017-08-02T21:09:05.357Z,23.30
2017-08-02T21:11:33.699Z,23.20
2017-08-02T21:14:01.995Z,23.20
2017-08-02T21:16:30.285Z,23.10
2017-08-02T21:18:58.613Z,23.20
2017-08-02T21:21:26.913Z,23.10
2017-08-02T21:23:55.204Z,23.10
2017-08-02T21:26:23.518Z,23.10
2017-08-02T21:28:51.846Z,23.10
2017-08-02T21:31:20.947Z,23.00
2017-08-02T21:33:50.044Z,23.00
2017-08-02T21:36:18.387Z,23.00
2017-08-02T21:38:47.456Z,22.90
2017-08-02T21:41:15.762Z,22.90
2017-08-02T21:43:44.114Z,22.90
2017-08-02T21:46:13.164Z,22.80
2017-08-02T21:48:41.479Z,22.80
2017-08-02T21:51:09.976Z,22.80
2017-08-02T21:53:38.269Z,22.70
2017-08-02T21:56:07.357Z,22.60
2017-08-02T21:58:35.657Z,22.60
2017-08-02T22:01:04.256Z,22.50
2017-08-02T22:03:33.346Z,22.40
2017-08-02T22:06:01.638Z,22.40
2017-08-02T22:08:29.959Z,22.40
2017-08-02T22:10:58.246Z,22.40
2017-08-02T22:13:26.576Z,22.40
2017-08-02T22:15:54.868Z,22.30
2017-08-02T22:18:23.210Z,22.30
2017-08-02T22:20:51.525Z,22.30
2017-08-02T22:23:20.604Z,22.40
2017-08-02T22:25:48.894Z,22.30
2017-08-02T22:28:17.214Z,22.40
2017-08-02T22:30:45.509Z,22.40
2017-08-02T22:33:13.828Z,22.40
2017-08-02T22:35:42.117Z,22.40
2017-08-02T22:38:10.417Z,22.40
2017-08-02T22:40:38.733Z,22.50
2017-08-02T22:43:07.021Z,22.50
2017-08-02T22:45:35.349Z,22.50
2017-08-02T22:48:03.649Z,22.50
2017-08-02T22:50:31.980Z,22.50
2017-08-02T22:53:00.278Z,22.40
2017-08-02T22:55:28.591Z,22.40
2017-08-02T22:57:56.877Z,22.40
2017-08-02T23:00:25.170Z,22.30
2017-08-02T23:02:53.497Z,22.30
2017-08-02T23:05:21.785Z,22.20
2017-08-02T23:07:50.121Z,22.20
2017-08-02T23:10:19.222Z,22.20
2017-08-02T23:12:47.521Z,22.10
2017-08-02T23:15:15.822Z,22.00
2017-08-02T23:17:44.145Z,21.90
2017-08-02T23:20:12.443Z,21.90
2017-08-02T23:22:40.758Z,21.90
2017-08-02T23:25:09.090Z,21.90
2017-08-02T23:27:37.420Z,21.90
2017-08-02T23:30:05.709Z,21.90
2017-08-02T23:32:34.011Z,21.80
2017-08-02T23:35:02.324Z,21.90
2017-08-02T23:37:30.608Z,21.90
2017-08-02T23:39:58.937Z,21.80
2017-08-02T23:42:27.228Z,21.80
2017-08-02T23:44:55.519Z,21.80
2017-08-02T23:47:23.844Z,21.80
2017-08-02T23:49:52.145Z,21.70
2017-08-02T23:52:20.437Z,21.70
2017-08-02T23:54:48.871Z,21.60
2017-08-02T23:57:17.160Z,21.50
2017-08-02T23:59:45.475Z,21.50
